sensor_id;sensor_type;location;lat;lon;timestamp;temperature;humidity
16829;DHT22;8531;48.078;11.968;2024-01-25T00:01:38;8.20;99.90
16829;DHT22;8531;48.078;11.968;2024-01-25T00:04:04;8.20;99.90
16829;DHT22;8531;48.078;11.968;2024-01-25T00:06:30;8.10;99.90
16829;DHT22;8531;48.078;11.968;2024-01-25T00:08:55;8.10;99.90
16829;DHT22;8531;48.078;11.968;2024-01-25T00:11:21;8.10;99.90
16829;DHT22;8531;48.078;11.968;2024-01-25T00:13:47;8.10;99.90
16829;DHT22;8531;48.078;11.968;2024-01-25T00:16:12;8.20;99.90
16829;DHT22;8531;48.078;11.968;2024-01-25T00:18:38;8.20;99.90
16829;DHT22;8531;48.078;11.968;2024-01-25T00:21:04;8.20;99.90
16829;DHT22;8531;48.078;11.968;2024-01-25T00:23:30;8.20;99.90
16829;DHT22;8531;48.078;11.968;2024-01-25T00:25:55;8.20;99.90
16829;DHT22;8531;48.078;11.968;2024-01-25T00:28:24;8.20;99.90
16829;DHT22;8531;48.078;11.968;2024-01-25T00:30:50;8.20;99.90
16829;DHT22;8531;48.078;11.968;2024-01-25T00:33:16;8.20;99.90
16829;DHT22;8531;48.078;11.968;2024-01-25T00:35:42;8.20;99.90
16829;DHT22;8531;48.078;11.968;2024-01-25T00:38:08;8.30;99.90
16829;DHT22;8531;48.078;11.968;2024-01-25T00:40:34;8.30;99.90
16829;DHT22;8531;48.078;11.968;2024-01-25T00:43:00;8.30;99.90
16829;DHT22;8531;48.078;11.968;2024-01-25T00:45:25;8.30;99.90
16829;DHT22;8531;48.078;11.968;2024-01-25T00:47:51;8.30;99.90
16829;DHT22;8531;48.078;11.968;2024-01-25T00:50:18;8.30;99.90
16829;DHT22;8531;48.078;11.968;2024-01-25T00:52:50;8.30;99.90
16829;DHT22;8531;48.078;11.968;2024-01-25T00:55:16;8.30;99.90
16829;DHT22;8531;48.078;11.968;2024-01-25T00:57:42;8.30;99.90
16829;DHT22;8531;48.078;11.968;2024-01-25T01:00:08;8.30;99.90
16829;DHT22;8531;48.078;11.968;2024-01-25T01:02:43;8.30;99.90
16829;DHT22;8531;48.078;11.968;2024-01-25T01:05:10;8.20;99.90
16829;DHT22;8531;48.078;11.968;2024-01-25T01:07:36;8.20;99.90
16829;DHT22;8531;48.078;11.968;2024-01-25T01:10:02;8.30;99.90
16829;DHT22;8531;48.078;11.968;2024-01-25T01:12:28;8.30;99.90
16829;DHT22;8531;48.078;11.968;2024-01-25T01:14:54;8.30;99.90
16829;DHT22;8531;48.078;11.968;2024-01-25T01:17:19;8.20;99.90
16829;DHT22;8531;48.078;11.968;2024-01-25T01:19:45;8.20;99.90
16829;DHT22;8531;48.078;11.968;2024-01-25T01:22:11;8.20;99.90
16829;DHT22;8531;48.078;11.968;2024-01-25T01:24:36;8.20;99.90
16829;DHT22;8531;48.078;11.968;2024-01-25T01:27:02;8.20;99.90
16829;DHT22;8531;48.078;11.968;2024-01-25T01:29:28;8.30;99.90
16829;DHT22;8531;48.078;11.968;2024-01-25T01:31:53;8.20;99.90
16829;DHT22;8531;48.078;11.968;2024-01-25T01:34:19;8.20;99.90
16829;DHT22;8531;48.078;11.968;2024-01-25T01:36:45;8.20;99.90
16829;DHT22;8531;48.078;11.968;2024-01-25T01:39:11;8.20;99.90
16829;DHT22;8531;48.078;11.968;2024-01-25T01:41:36;8.20;99.90
16829;DHT22;8531;48.078;11.968;2024-01-25T01:44:02;8.20;99.90
16829;DHT22;8531;48.078;11.968;2024-01-25T01:46:35;8.20;99.90
16829;DHT22;8531;48.078;11.968;2024-01-25T01:49:03;8.20;99.90
16829;DHT22;8531;48.078;11.968;2024-01-25T01:51:31;8.30;99.90
16829;DHT22;8531;48.078;11.968;2024-01-25T01:53:59;8.30;99.90
16829;DHT22;8531;48.078;11.968;2024-01-25T01:56:27;8.20;99.90
16829;DHT22;8531;48.078;11.968;2024-01-25T01:59:04;8.30;99.90
16829;DHT22;8531;48.078;11.968;2024-01-25T02:01:30;8.30;99.90
16829;DHT22;8531;48.078;11.968;2024-01-25T02:03:56;8.30;99.90
16829;DHT22;8531;48.078;11.968;2024-01-25T02:06:23;8.30;99.90
16829;DHT22;8531;48.078;11.968;2024-01-25T02:08:49;8.20;99.90
16829;DHT22;8531;48.078;11.968;2024-01-25T02:11:25;8.20;99.90
16829;DHT22;8531;48.078;11.968;2024-01-25T02:13:50;8.20;99.90
16829;DHT22;8531;48.078;11.968;2024-01-25T02:16:16;8.30;99.90
16829;DHT22;8531;48.078;11.968;2024-01-25T02:18:43;8.30;99.90
16829;DHT22;8531;48.078;11.968;2024-01-25T02:21:08;8.30;99.90
16829;DHT22;8531;48.078;11.968;2024-01-25T02:23:34;8.30;99.90
16829;DHT22;8531;48.078;11.968;2024-01-25T02:26:00;8.30;99.90
16829;DHT22;8531;48.078;11.968;2024-01-25T02:28:27;8.30;99.90
16829;DHT22;8531;48.078;11.968;2024-01-25T02:30:52;8.30;99.90
16829;DHT22;8531;48.078;11.968;2024-01-25T02:33:18;8.30;99.90
16829;DHT22;8531;48.078;11.968;2024-01-25T02:35:44;8.30;99.90
16829;DHT22;8531;48.078;11.968;2024-01-25T02:38:10;8.30;99.90
16829;DHT22;8531;48.078;11.968;2024-01-25T02:40:35;8.30;99.90
16829;DHT22;8531;48.078;11.968;2024-01-25T02:43:01;8.20;99.90
16829;DHT22;8531;48.078;11.968;2024-01-25T02:45:27;8.20;99.90
16829;DHT22;8531;48.078;11.968;2024-01-25T02:47:52;8.20;99.90
16829;DHT22;8531;48.078;11.968;2024-01-25T02:50:18;8.30;99.90
16829;DHT22;8531;48.078;11.968;2024-01-25T02:52:44;8.20;99.90
16829;DHT22;8531;48.078;11.968;2024-01-25T02:55:09;8.30;99.90
16829;DHT22;8531;48.078;11.968;2024-01-25T02:57:35;8.20;99.90
16829;DHT22;8531;48.078;11.968;2024-01-25T03:00:01;8.20;99.90
16829;DHT22;8531;48.078;11.968;2024-01-25T03:02:26;8.20;99.90
16829;DHT22;8531;48.078;11.968;2024-01-25T03:04:52;8.30;99.90
16829;DHT22;8531;48.078;11.968;2024-01-25T03:07:18;8.20;99.90
16829;DHT22;8531;48.078;11.968;2024-01-25T03:09:43;8.20;99.90
16829;DHT22;8531;48.078;11.968;2024-01-25T03:12:09;8.20;99.90
16829;DHT22;8531;48.078;11.968;2024-01-25T03:14:35;8.20;99.90
16829;DHT22;8531;48.078;11.968;2024-01-25T03:17:00;8.20;99.90
16829;DHT22;8531;48.078;11.968;2024-01-25T03:19:26;8.20;99.90
16829;DHT22;8531;48.078;11.968;2024-01-25T03:21:52;8.30;99.90
16829;DHT22;8531;48.078;11.968;2024-01-25T03:24:20;8.20;99.90
16829;DHT22;8531;48.078;11.968;2024-01-25T03:26:45;8.20;99.90
16829;DHT22;8531;48.078;11.968;2024-01-25T03:29:11;8.20;99.90
16829;DHT22;8531;48.078;11.968;2024-01-25T03:31:37;8.20;99.90
16829;DHT22;8531;48.078;11.968;2024-01-25T03:34:03;8.20;99.90
16829;DHT22;8531;48.078;11.968;2024-01-25T03:36:28;8.30;99.90
16829;DHT22;8531;48.078;11.968;2024-01-25T03:38:54;8.20;99.90
16829;DHT22;8531;48.078;11.968;2024-01-25T03:41:20;8.20;99.90
16829;DHT22;8531;48.078;11.968;2024-01-25T03:43:46;8.20;99.90
16829;DHT22;8531;48.078;11.968;2024-01-25T03:46:12;8.20;99.90
16829;DHT22;8531;48.078;11.968;2024-01-25T03:48:38;8.20;99.90
16829;DHT22;8531;48.078;11.968;2024-01-25T03:51:03;8.10;99.90
16829;DHT22;8531;48.078;11.968;2024-01-25T03:53:29;8.20;99.90
16829;DHT22;8531;48.078;11.968;2024-01-25T03:55:55;8.20;99.90
16829;DHT22;8531;48.078;11.968;2024-01-25T03:58:20;8.20;99.90
16829;DHT22;8531;48.078;11.968;2024-01-25T04:00:46;8.20;99.90
16829;DHT22;8531;48.078;11.968;2024-01-25T04:03:12;8.20;99.90
16829;DHT22;8531;48.078;11.968;2024-01-25T04:05:38;8.20;99.90
16829;DHT22;8531;48.078;11.968;2024-01-25T04:08:05;8.20;99.90
16829;DHT22;8531;48.078;11.968;2024-01-25T04:10:31;8.20;99.90
16829;DHT22;8531;48.078;11.968;2024-01-25T04:12:57;8.20;99.90
16829;DHT22;8531;48.078;11.968;2024-01-25T04:15:22;8.10;99.90
16829;DHT22;8531;48.078;11.968;2024-01-25T04:17:48;8.20;99.90
16829;DHT22;8531;48.078;11.968;2024-01-25T04:20:15;8.20;99.90
16829;DHT22;8531;48.078;11.968;2024-01-25T04:22:41;8.20;99.90
16829;DHT22;8531;48.078;11.968;2024-01-25T04:25:07;8.20;99.90
16829;DHT22;8531;48.078;11.968;2024-01-25T04:27:32;8.20;99.90
16829;DHT22;8531;48.078;11.968;2024-01-25T04:29:58;8.20;99.90
16829;DHT22;8531;48.078;11.968;2024-01-25T04:32:24;8.20;99.90
16829;DHT22;8531;48.078;11.968;2024-01-25T04:34:49;8.20;99.90
16829;DHT22;8531;48.078;11.968;2024-01-25T04:37:15;8.20;99.90
16829;DHT22;8531;48.078;11.968;2024-01-25T04:39:41;8.10;99.90
16829;DHT22;8531;48.078;11.968;2024-01-25T04:42:07;8.10;99.90
16829;DHT22;8531;48.078;11.968;2024-01-25T04:44:33;8.20;99.90
16829;DHT22;8531;48.078;11.968;2024-01-25T04:46:59;8.20;99.90
16829;DHT22;8531;48.078;11.968;2024-01-25T04:49:25;8.20;99.90
16829;DHT22;8531;48.078;11.968;2024-01-25T04:51:51;8.20;99.90
16829;DHT22;8531;48.078;11.968;2024-01-25T04:54:16;8.20;99.90
16829;DHT22;8531;48.078;11.968;2024-01-25T04:56:43;8.10;99.90
16829;DHT22;8531;48.078;11.968;2024-01-25T04:59:09;8.10;99.90
16829;DHT22;8531;48.078;11.968;2024-01-25T05:01:36;8.10;99.90
16829;DHT22;8531;48.078;11.968;2024-01-25T05:04:01;8.10;99.90
16829;DHT22;8531;48.078;11.968;2024-01-25T05:06:28;8.10;99.90
16829;DHT22;8531;48.078;11.968;2024-01-25T05:08:54;8.10;99.90
16829;DHT22;8531;48.078;11.968;2024-01-25T05:11:20;8.10;99.90
16829;DHT22;8531;48.078;11.968;2024-01-25T05:13:45;8.10;99.90
16829;DHT22;8531;48.078;11.968;2024-01-25T05:16:11;8.10;99.90
16829;DHT22;8531;48.078;11.968;2024-01-25T05:18:37;8.10;99.90
16829;DHT22;8531;48.078;11.968;2024-01-25T05:21:03;8.10;99.90
16829;DHT22;8531;48.078;11.968;2024-01-25T05:23:28;8.10;99.90
16829;DHT22;8531;48.078;11.968;2024-01-25T05:25:54;8.10;99.90
16829;DHT22;8531;48.078;11.968;2024-01-25T05:28:19;8.10;99.90
16829;DHT22;8531;48.078;11.968;2024-01-25T05:30:45;8.10;99.90
16829;DHT22;8531;48.078;11.968;2024-01-25T05:33:11;8.10;99.90
16829;DHT22;8531;48.078;11.968;2024-01-25T05:35:36;8.10;99.90
16829;DHT22;8531;48.078;11.968;2024-01-25T05:38:02;8.10;99.90
16829;DHT22;8531;48.078;11.968;2024-01-25T05:40:28;8.00;99.90
16829;DHT22;8531;48.078;11.968;2024-01-25T05:42:54;8.10;99.90
16829;DHT22;8531;48.078;11.968;2024-01-25T05:45:19;8.00;99.90
16829;DHT22;8531;48.078;11.968;2024-01-25T05:47:47;8.00;99.90
16829;DHT22;8531;48.078;11.968;2024-01-25T05:50:13;8.00;99.90
16829;DHT22;8531;48.078;11.968;2024-01-25T05:52:38;7.90;99.90
16829;DHT22;8531;48.078;11.968;2024-01-25T05:55:07;7.90;99.90
16829;DHT22;8531;48.078;11.968;2024-01-25T05:57:36;7.90;99.90
16829;DHT22;8531;48.078;11.968;2024-01-25T06:00:02;7.90;99.90
16829;DHT22;8531;48.078;11.968;2024-01-25T06:02:28;7.90;99.90
16829;DHT22;8531;48.078;11.968;2024-01-25T06:04:54;7.80;99.90
16829;DHT22;8531;48.078;11.968;2024-01-25T06:07:20;7.80;99.90
16829;DHT22;8531;48.078;11.968;2024-01-25T06:09:46;7.80;99.90
16829;DHT22;8531;48.078;11.968;2024-01-25T06:12:11;7.80;99.90
16829;DHT22;8531;48.078;11.968;2024-01-25T06:14:37;7.80;99.90
16829;DHT22;8531;48.078;11.968;2024-01-25T06:17:03;7.70;99.90
16829;DHT22;8531;48.078;11.968;2024-01-25T06:19:29;7.70;99.90
16829;DHT22;8531;48.078;11.968;2024-01-25T06:21:55;7.70;99.90
16829;DHT22;8531;48.078;11.968;2024-01-25T06:24:20;7.80;99.90
16829;DHT22;8531;48.078;11.968;2024-01-25T06:26:46;7.80;99.90
16829;DHT22;8531;48.078;11.968;2024-01-25T06:29:11;7.80;99.90
16829;DHT22;8531;48.078;11.968;2024-01-25T06:31:43;7.80;99.90
16829;DHT22;8531;48.078;11.968;2024-01-25T06:34:10;7.80;99.90
16829;DHT22;8531;48.078;11.968;2024-01-25T06:36:35;7.80;99.90
16829;DHT22;8531;48.078;11.968;2024-01-25T06:39:01;7.80;99.90
16829;DHT22;8531;48.078;11.968;2024-01-25T06:41:27;7.80;99.90
16829;DHT22;8531;48.078;11.968;2024-01-25T06:43:52;7.80;99.90
16829;DHT22;8531;48.078;11.968;2024-01-25T06:46:18;7.80;99.90
16829;DHT22;8531;48.078;11.968;2024-01-25T06:48:43;7.80;99.90
16829;DHT22;8531;48.078;11.968;2024-01-25T06:51:09;7.80;99.90
16829;DHT22;8531;48.078;11.968;2024-01-25T06:53:35;7.80;99.90
16829;DHT22;8531;48.078;11.968;2024-01-25T06:56:00;7.80;99.90
16829;DHT22;8531;48.078;11.968;2024-01-25T06:58:26;7.80;99.90
16829;DHT22;8531;48.078;11.968;2024-01-25T07:00:52;7.80;99.90
16829;DHT22;8531;48.078;11.968;2024-01-25T07:03:18;7.90;99.90
16829;DHT22;8531;48.078;11.968;2024-01-25T07:05:44;7.80;99.90
16829;DHT22;8531;48.078;11.968;2024-01-25T07:08:10;7.80;99.90
16829;DHT22;8531;48.078;11.968;2024-01-25T07:10:39;7.80;99.90
16829;DHT22;8531;48.078;11.968;2024-01-25T07:13:05;7.80;99.90
16829;DHT22;8531;48.078;11.968;2024-01-25T07:15:31;7.70;99.90
16829;DHT22;8531;48.078;11.968;2024-01-25T07:17:57;7.70;99.90
16829;DHT22;8531;48.078;11.968;2024-01-25T07:20:23;7.70;99.90
16829;DHT22;8531;48.078;11.968;2024-01-25T07:22:49;7.70;99.90
16829;DHT22;8531;48.078;11.968;2024-01-25T07:25:14;7.70;99.90
16829;DHT22;8531;48.078;11.968;2024-01-25T07:27:44;7.70;99.90
16829;DHT22;8531;48.078;11.968;2024-01-25T07:30:11;7.70;99.90
16829;DHT22;8531;48.078;11.968;2024-01-25T07:32:37;7.70;99.90
16829;DHT22;8531;48.078;11.968;2024-01-25T07:35:04;7.70;99.90
16829;DHT22;8531;48.078;11.968;2024-01-25T07:37:30;7.60;99.90
16829;DHT22;8531;48.078;11.968;2024-01-25T07:39:56;7.60;99.90
16829;DHT22;8531;48.078;11.968;2024-01-25T07:42:21;7.60;99.90
16829;DHT22;8531;48.078;11.968;2024-01-25T07:44:47;7.60;99.90
16829;DHT22;8531;48.078;11.968;2024-01-25T07:47:14;7.60;99.90
16829;DHT22;8531;48.078;11.968;2024-01-25T07:49:40;7.60;99.90
16829;DHT22;8531;48.078;11.968;2024-01-25T07:52:06;7.60;99.90
16829;DHT22;8531;48.078;11.968;2024-01-25T07:54:32;7.60;99.90
16829;DHT22;8531;48.078;11.968;2024-01-25T07:56:57;7.60;99.90
16829;DHT22;8531;48.078;11.968;2024-01-25T07:59:23;7.60;99.90
16829;DHT22;8531;48.078;11.968;2024-01-25T08:01:48;7.60;99.90
16829;DHT22;8531;48.078;11.968;2024-01-25T08:04:14;7.50;99.90
16829;DHT22;8531;48.078;11.968;2024-01-25T08:06:40;7.50;99.90
16829;DHT22;8531;48.078;11.968;2024-01-25T08:09:05;7.40;99.90
16829;DHT22;8531;48.078;11.968;2024-01-25T08:11:31;7.40;99.90
16829;DHT22;8531;48.078;11.968;2024-01-25T08:13:57;7.40;99.90
16829;DHT22;8531;48.078;11.968;2024-01-25T08:16:23;7.40;99.90
16829;DHT22;8531;48.078;11.968;2024-01-25T08:18:48;7.40;99.90
16829;DHT22;8531;48.078;11.968;2024-01-25T08:21:15;7.50;99.90
16829;DHT22;8531;48.078;11.968;2024-01-25T08:23:40;7.50;99.90
16829;DHT22;8531;48.078;11.968;2024-01-25T08:26:07;7.50;99.90
16829;DHT22;8531;48.078;11.968;2024-01-25T08:28:35;7.50;99.90
16829;DHT22;8531;48.078;11.968;2024-01-25T08:31:02;7.50;99.90
16829;DHT22;8531;48.078;11.968;2024-01-25T08:33:28;7.60;99.90
16829;DHT22;8531;48.078;11.968;2024-01-25T08:35:54;7.60;99.90
16829;DHT22;8531;48.078;11.968;2024-01-25T08:38:19;7.60;99.90
16829;DHT22;8531;48.078;11.968;2024-01-25T08:40:45;7.60;99.90
16829;DHT22;8531;48.078;11.968;2024-01-25T08:43:11;7.60;99.90
16829;DHT22;8531;48.078;11.968;2024-01-25T08:45:37;7.70;99.90
16829;DHT22;8531;48.078;11.968;2024-01-25T08:48:05;7.70;99.90
16829;DHT22;8531;48.078;11.968;2024-01-25T08:50:31;7.80;99.90
16829;DHT22;8531;48.078;11.968;2024-01-25T08:52:58;7.90;99.90
16829;DHT22;8531;48.078;11.968;2024-01-25T08:55:25;7.90;99.90
16829;DHT22;8531;48.078;11.968;2024-01-25T08:57:51;8.00;99.90
16829;DHT22;8531;48.078;11.968;2024-01-25T09:00:17;8.00;99.90
16829;DHT22;8531;48.078;11.968;2024-01-25T09:02:43;8.00;99.90
16829;DHT22;8531;48.078;11.968;2024-01-25T09:05:10;7.90;99.90
16829;DHT22;8531;48.078;11.968;2024-01-25T09:07:36;7.90;99.90
16829;DHT22;8531;48.078;11.968;2024-01-25T09:10:02;7.80;99.90
16829;DHT22;8531;48.078;11.968;2024-01-25T09:12:30;7.90;99.90
16829;DHT22;8531;48.078;11.968;2024-01-25T09:14:55;7.90;99.90
16829;DHT22;8531;48.078;11.968;2024-01-25T09:17:21;7.90;99.90
16829;DHT22;8531;48.078;11.968;2024-01-25T09:19:50;7.90;99.90
16829;DHT22;8531;48.078;11.968;2024-01-25T09:22:17;7.90;99.90
16829;DHT22;8531;48.078;11.968;2024-01-25T09:24:45;8.00;99.90
16829;DHT22;8531;48.078;11.968;2024-01-25T09:27:11;8.10;99.90
16829;DHT22;8531;48.078;11.968;2024-01-25T09:29:38;8.10;99.90
16829;DHT22;8531;48.078;11.968;2024-01-25T09:32:08;8.20;99.90
16829;DHT22;8531;48.078;11.968;2024-01-25T09:34:37;8.20;99.90
16829;DHT22;8531;48.078;11.968;2024-01-25T09:37:04;8.20;99.90
16829;DHT22;8531;48.078;11.968;2024-01-25T09:39:31;8.20;99.90
16829;DHT22;8531;48.078;11.968;2024-01-25T09:41:57;8.30;99.90
16829;DHT22;8531;48.078;11.968;2024-01-25T09:44:23;8.30;99.90
16829;DHT22;8531;48.078;11.968;2024-01-25T09:46:50;8.40;99.90
16829;DHT22;8531;48.078;11.968;2024-01-25T09:49:16;8.40;99.90
16829;DHT22;8531;48.078;11.968;2024-01-25T09:51:43;8.50;99.90
16829;DHT22;8531;48.078;11.968;2024-01-25T09:54:09;8.50;99.90
16829;DHT22;8531;48.078;11.968;2024-01-25T09:56:35;8.40;99.90
16829;DHT22;8531;48.078;11.968;2024-01-25T09:59:02;8.30;99.90
16829;DHT22;8531;48.078;11.968;2024-01-25T10:01:28;8.30;99.90
16829;DHT22;8531;48.078;11.968;2024-01-25T10:03:54;8.30;99.90
16829;DHT22;8531;48.078;11.968;2024-01-25T10:06:21;8.30;99.90
16829;DHT22;8531;48.078;11.968;2024-01-25T10:08:47;8.30;99.90
16829;DHT22;8531;48.078;11.968;2024-01-25T10:11:13;8.30;99.90
16829;DHT22;8531;48.078;11.968;2024-01-25T10:13:48;8.30;99.90
16829;DHT22;8531;48.078;11.968;2024-01-25T10:16:18;8.40;99.90
16829;DHT22;8531;48.078;11.968;2024-01-25T10:18:46;8.40;99.90
16829;DHT22;8531;48.078;11.968;2024-01-25T10:21:14;8.40;99.90
16829;DHT22;8531;48.078;11.968;2024-01-25T10:23:43;8.40;99.90
16829;DHT22;8531;48.078;11.968;2024-01-25T10:26:09;8.40;99.90
16829;DHT22;8531;48.078;11.968;2024-01-25T10:28:36;8.30;99.90
16829;DHT22;8531;48.078;11.968;2024-01-25T10:31:03;8.40;99.90
16829;DHT22;8531;48.078;11.968;2024-01-25T10:33:31;8.60;99.90
16829;DHT22;8531;48.078;11.968;2024-01-25T10:35:58;8.70;99.90
16829;DHT22;8531;48.078;11.968;2024-01-25T10:38:34;8.80;99.90
16829;DHT22;8531;48.078;11.968;2024-01-25T10:41:05;8.90;99.90
16829;DHT22;8531;48.078;11.968;2024-01-25T10:43:33;9.00;99.90
16829;DHT22;8531;48.078;11.968;2024-01-25T10:45:59;9.10;99.90
16829;DHT22;8531;48.078;11.968;2024-01-25T10:48:26;9.20;99.90
16829;DHT22;8531;48.078;11.968;2024-01-25T10:50:58;9.20;99.90
16829;DHT22;8531;48.078;11.968;2024-01-25T10:53:33;9.30;99.90
16829;DHT22;8531;48.078;11.968;2024-01-25T10:56:00;9.30;99.90
16829;DHT22;8531;48.078;11.968;2024-01-25T10:58:33;9.40;99.90
16829;DHT22;8531;48.078;11.968;2024-01-25T11:01:01;9.50;99.90
16829;DHT22;8531;48.078;11.968;2024-01-25T11:03:34;9.60;99.90
16829;DHT22;8531;48.078;11.968;2024-01-25T11:06:10;9.60;99.90
16829;DHT22;8531;48.078;11.968;2024-01-25T11:08:37;9.60;99.90
16829;DHT22;8531;48.078;11.968;2024-01-25T11:11:07;9.60;99.90
16829;DHT22;8531;48.078;11.968;2024-01-25T11:13:34;9.50;99.90
16829;DHT22;8531;48.078;11.968;2024-01-25T11:16:15;9.40;99.90
16829;DHT22;8531;48.078;11.968;2024-01-25T11:18:51;9.40;99.90
16829;DHT22;8531;48.078;11.968;2024-01-25T11:21:45;9.40;99.90
16829;DHT22;8531;48.078;11.968;2024-01-25T11:24:20;9.30;99.90
16829;DHT22;8531;48.078;11.968;2024-01-25T11:26:47;9.30;99.90
16829;DHT22;8531;48.078;11.968;2024-01-25T11:29:17;9.30;99.90
16829;DHT22;8531;48.078;11.968;2024-01-25T11:31:44;9.30;99.90
16829;DHT22;8531;48.078;11.968;2024-01-25T11:34:14;9.40;99.90
16829;DHT22;8531;48.078;11.968;2024-01-25T11:36:41;9.60;99.90
16829;DHT22;8531;48.078;11.968;2024-01-25T11:39:09;9.60;99.90
16829;DHT22;8531;48.078;11.968;2024-01-25T11:41:35;9.60;99.90
16829;DHT22;8531;48.078;11.968;2024-01-25T11:44:02;9.60;99.90
16829;DHT22;8531;48.078;11.968;2024-01-25T11:46:29;9.60;99.90
16829;DHT22;8531;48.078;11.968;2024-01-25T11:48:55;9.60;99.90
16829;DHT22;8531;48.078;11.968;2024-01-25T11:51:21;9.50;99.90
16829;DHT22;8531;48.078;11.968;2024-01-25T11:53:47;9.60;99.90
16829;DHT22;8531;48.078;11.968;2024-01-25T11:56:17;9.70;99.90
16829;DHT22;8531;48.078;11.968;2024-01-25T11:58:45;9.80;99.90
16829;DHT22;8531;48.078;11.968;2024-01-25T12:01:12;9.90;99.90
16829;DHT22;8531;48.078;11.968;2024-01-25T12:03:38;9.90;99.90
16829;DHT22;8531;48.078;11.968;2024-01-25T12:06:05;9.80;99.90
16829;DHT22;8531;48.078;11.968;2024-01-25T12:08:34;9.70;99.90
16829;DHT22;8531;48.078;11.968;2024-01-25T12:11:08;9.70;99.90
16829;DHT22;8531;48.078;11.968;2024-01-25T12:13:42;9.70;99.90
16829;DHT22;8531;48.078;11.968;2024-01-25T12:16:11;9.80;99.90
16829;DHT22;8531;48.078;11.968;2024-01-25T12:18:38;9.70;99.90
16829;DHT22;8531;48.078;11.968;2024-01-25T12:21:05;9.70;99.90
16829;DHT22;8531;48.078;11.968;2024-01-25T12:23:40;9.70;99.90
16829;DHT22;8531;48.078;11.968;2024-01-25T12:26:07;9.60;99.90
16829;DHT22;8531;48.078;11.968;2024-01-25T12:28:34;9.70;99.90
16829;DHT22;8531;48.078;11.968;2024-01-25T12:31:00;9.70;99.90
16829;DHT22;8531;48.078;11.968;2024-01-25T12:33:27;9.70;99.90
16829;DHT22;8531;48.078;11.968;2024-01-25T12:35:52;9.70;99.90
16829;DHT22;8531;48.078;11.968;2024-01-25T12:38:23;9.70;99.90
16829;DHT22;8531;48.078;11.968;2024-01-25T12:40:50;9.70;99.90
16829;DHT22;8531;48.078;11.968;2024-01-25T12:43:16;9.80;99.90
16829;DHT22;8531;48.078;11.968;2024-01-25T12:45:42;9.90;99.90
16829;DHT22;8531;48.078;11.968;2024-01-25T12:48:08;9.90;99.90
16829;DHT22;8531;48.078;11.968;2024-01-25T12:50:35;9.90;99.90
16829;DHT22;8531;48.078;11.968;2024-01-25T12:53:01;9.90;99.90
16829;DHT22;8531;48.078;11.968;2024-01-25T12:55:31;9.90;99.90
16829;DHT22;8531;48.078;11.968;2024-01-25T12:57:57;9.80;99.90
16829;DHT22;8531;48.078;11.968;2024-01-25T13:00:23;9.80;99.90
16829;DHT22;8531;48.078;11.968;2024-01-25T13:02:49;9.80;99.90
16829;DHT22;8531;48.078;11.968;2024-01-25T13:05:15;9.80;99.90
16829;DHT22;8531;48.078;11.968;2024-01-25T13:07:41;9.80;99.90
16829;DHT22;8531;48.078;11.968;2024-01-25T13:10:11;9.80;99.90
16829;DHT22;8531;48.078;11.968;2024-01-25T13:12:40;9.80;99.90
16829;DHT22;8531;48.078;11.968;2024-01-25T13:15:06;9.90;99.90
16829;DHT22;8531;48.078;11.968;2024-01-25T13:17:34;9.90;99.90
16829;DHT22;8531;48.078;11.968;2024-01-25T13:20:05;9.90;99.90
16829;DHT22;8531;48.078;11.968;2024-01-25T13:22:33;10.00;99.90
16829;DHT22;8531;48.078;11.968;2024-01-25T13:25:02;10.00;99.90
16829;DHT22;8531;48.078;11.968;2024-01-25T13:27:29;10.10;99.90
16829;DHT22;8531;48.078;11.968;2024-01-25T13:29:55;10.10;99.90
16829;DHT22;8531;48.078;11.968;2024-01-25T13:32:22;10.10;99.90
16829;DHT22;8531;48.078;11.968;2024-01-25T13:34:48;10.20;99.90
16829;DHT22;8531;48.078;11.968;2024-01-25T13:37:14;10.20;99.90
16829;DHT22;8531;48.078;11.968;2024-01-25T13:39:39;10.10;99.90
16829;DHT22;8531;48.078;11.968;2024-01-25T13:42:05;10.10;99.90
16829;DHT22;8531;48.078;11.968;2024-01-25T13:44:31;10.10;99.90
16829;DHT22;8531;48.078;11.968;2024-01-25T13:46:56;10.10;99.90
16829;DHT22;8531;48.078;11.968;2024-01-25T13:49:22;10.10;99.90
16829;DHT22;8531;48.078;11.968;2024-01-25T13:51:48;10.10;99.90
16829;DHT22;8531;48.078;11.968;2024-01-25T13:54:14;10.00;99.90
16829;DHT22;8531;48.078;11.968;2024-01-25T13:56:40;10.00;99.90
16829;DHT22;8531;48.078;11.968;2024-01-25T13:59:06;10.00;99.90
16829;DHT22;8531;48.078;11.968;2024-01-25T14:01:32;10.00;99.90
16829;DHT22;8531;48.078;11.968;2024-01-25T14:03:57;9.90;99.90
16829;DHT22;8531;48.078;11.968;2024-01-25T14:06:23;10.00;99.90
16829;DHT22;8531;48.078;11.968;2024-01-25T14:08:49;9.90;99.90
16829;DHT22;8531;48.078;11.968;2024-01-25T14:11:15;9.90;99.90
16829;DHT22;8531;48.078;11.968;2024-01-25T14:13:42;9.90;99.90
16829;DHT22;8531;48.078;11.968;2024-01-25T14:16:08;9.90;99.90
16829;DHT22;8531;48.078;11.968;2024-01-25T14:18:39;9.90;99.90
16829;DHT22;8531;48.078;11.968;2024-01-25T14:21:05;9.90;99.90
16829;DHT22;8531;48.078;11.968;2024-01-25T14:23:32;9.90;99.90
16829;DHT22;8531;48.078;11.968;2024-01-25T14:25:57;9.80;99.90
16829;DHT22;8531;48.078;11.968;2024-01-25T14:28:23;9.80;99.90
16829;DHT22;8531;48.078;11.968;2024-01-25T14:30:49;9.80;99.90
16829;DHT22;8531;48.078;11.968;2024-01-25T14:33:14;9.80;99.90
16829;DHT22;8531;48.078;11.968;2024-01-25T14:35:40;9.70;99.90
16829;DHT22;8531;48.078;11.968;2024-01-25T14:38:06;9.60;99.90
16829;DHT22;8531;48.078;11.968;2024-01-25T14:40:32;9.60;99.90
16829;DHT22;8531;48.078;11.968;2024-01-25T14:42:57;9.60;99.90
16829;DHT22;8531;48.078;11.968;2024-01-25T14:45:23;9.50;99.90
16829;DHT22;8531;48.078;11.968;2024-01-25T14:47:49;9.60;99.90
16829;DHT22;8531;48.078;11.968;2024-01-25T14:50:15;9.60;99.90
16829;DHT22;8531;48.078;11.968;2024-01-25T14:52:41;9.60;99.90
16829;DHT22;8531;48.078;11.968;2024-01-25T14:55:07;9.60;99.90
16829;DHT22;8531;48.078;11.968;2024-01-25T14:57:32;9.60;99.90
16829;DHT22;8531;48.078;11.968;2024-01-25T14:59:58;9.60;99.90
16829;DHT22;8531;48.078;11.968;2024-01-25T15:02:24;9.50;99.90
16829;DHT22;8531;48.078;11.968;2024-01-25T15:04:50;9.60;99.90
16829;DHT22;8531;48.078;11.968;2024-01-25T15:07:16;9.50;99.90
16829;DHT22;8531;48.078;11.968;2024-01-25T15:09:49;9.50;99.90
16829;DHT22;8531;48.078;11.968;2024-01-25T15:12:15;9.50;99.90
16829;DHT22;8531;48.078;11.968;2024-01-25T15:14:41;9.40;99.90
16829;DHT22;8531;48.078;11.968;2024-01-25T15:17:07;9.50;99.90
16829;DHT22;8531;48.078;11.968;2024-01-25T15:19:32;9.30;99.90
16829;DHT22;8531;48.078;11.968;2024-01-25T15:21:58;9.40;99.90
16829;DHT22;8531;48.078;11.968;2024-01-25T15:24:24;9.30;99.90
16829;DHT22;8531;48.078;11.968;2024-01-25T15:26:51;9.20;99.90
16829;DHT22;8531;48.078;11.968;2024-01-25T15:29:17;9.20;99.90
16829;DHT22;8531;48.078;11.968;2024-01-25T15:31:43;9.20;99.90
16829;DHT22;8531;48.078;11.968;2024-01-25T15:34:08;9.20;99.90
16829;DHT22;8531;48.078;11.968;2024-01-25T15:36:34;9.30;99.90
16829;DHT22;8531;48.078;11.968;2024-01-25T15:39:01;9.20;99.90
16829;DHT22;8531;48.078;11.968;2024-01-25T15:41:29;9.20;99.90